sensor_id;sensor_type;location;lat;lon;timestamp;pressure;altitude;pressure_sealevel;temperature;humidity
2675;BME280;1347;42.122;24.746;2022-12-18T00:00:58;100162.69;;;9.47;100.00
2675;BME280;1347;42.122;24.746;2022-12-18T00:03:26;100151.50;;;9.52;100.00
2675;BME280;1347;42.122;24.746;2022-12-18T00:05:52;100154.25;;;9.52;100.00
2675;BME280;1347;42.122;24.746;2022-12-18T00:08:19;100166.78;;;9.53;100.00
2675;BME280;1347;42.122;24.746;2022-12-18T00:10:46;100180.47;;;9.53;100.00
2675;BME280;1347;42.122;24.746;2022-12-18T00:13:15;100191.44;;;9.53;100.00
2675;BME280;1347;42.122;24.746;2022-12-18T00:15:41;100183.22;;;9.53;100.00
2675;BME280;1347;42.122;24.746;2022-12-18T00:18:09;100199.38;;;9.58;100.00
2675;BME280;1347;42.122;24.746;2022-12-18T00:20:36;100214.19;;;9.69;100.00
2675;BME280;1347;42.122;24.746;2022-12-18T00:23:04;100206.88;;;9.73;100.00
2675;BME280;1347;42.122;24.746;2022-12-18T00:25:32;100209.16;;;9.71;100.00
2675;BME280;1347;42.122;24.746;2022-12-18T00:28:00;100215.44;;;9.72;100.00
2675;BME280;1347;42.122;24.746;2022-12-18T00:30:28;100223.19;;;9.70;100.00
2675;BME280;1347;42.122;24.746;2022-12-18T00:32:55;100219.09;;;9.76;100.00
2675;BME280;1347;42.122;24.746;2022-12-18T00:35:22;100225.28;;;9.60;100.00
2675;BME280;1347;42.122;24.746;2022-12-18T00:37:49;100224.72;;;9.55;100.00
2675;BME280;1347;42.122;24.746;2022-12-18T00:40:16;100232.03;;;9.51;100.00
2675;BME280;1347;42.122;24.746;2022-12-18T00:42:43;100239.22;;;9.43;100.00
2675;BME280;1347;42.122;24.746;2022-12-18T00:45:21;100245.16;;;9.21;100.00
2675;BME280;1347;42.122;24.746;2022-12-18T00:47:49;100261.69;;;9.12;100.00
2675;BME280;1347;42.122;24.746;2022-12-18T00:50:16;100262.59;;;9.04;100.00
2675;BME280;1347;42.122;24.746;2022-12-18T00:52:53;100260.97;;;8.91;100.00
2675;BME280;1347;42.122;24.746;2022-12-18T00:55:19;100257.91;;;8.80;100.00
2675;BME280;1347;42.122;24.746;2022-12-18T00:57:46;100262.78;;;8.75;100.00
2675;BME280;1347;42.122;24.746;2022-12-18T01:00:16;100257.66;;;8.73;100.00
2675;BME280;1347;42.122;24.746;2022-12-18T01:02:43;100251.72;;;8.71;100.00
2675;BME280;1347;42.122;24.746;2022-12-18T01:05:12;100251.41;;;8.73;100.00
2675;BME280;1347;42.122;24.746;2022-12-18T01:07:39;100253.78;;;8.74;100.00
2675;BME280;1347;42.122;24.746;2022-12-18T01:10:08;100256.53;;;8.74;100.00
2675;BME280;1347;42.122;24.746;2022-12-18T01:12:35;100252.75;;;8.79;100.00
2675;BME280;1347;42.122;24.746;2022-12-18T01:15:03;100248.69;;;8.85;100.00
2675;BME280;1347;42.122;24.746;2022-12-18T01:17:31;100246.06;;;8.89;100.00
2675;BME280;1347;42.122;24.746;2022-12-18T01:19:57;100254.41;;;9.04;100.00
2675;BME280;1347;42.122;24.746;2022-12-18T01:22:26;100248.69;;;9.09;100.00
2675;BME280;1347;42.122;24.746;2022-12-18T01:24:53;100247.88;;;9.09;100.00
2675;BME280;1347;42.122;24.746;2022-12-18T01:27:23;100237.88;;;9.13;100.00
2675;BME280;1347;42.122;24.746;2022-12-18T01:29:49;100244.94;;;9.14;100.00
2675;BME280;1347;42.122;24.746;2022-12-18T01:32:18;100250.88;;;9.16;100.00
2675;BME280;1347;42.122;24.746;2022-12-18T01:34:45;100236.72;;;9.14;100.00
2675;BME280;1347;42.122;24.746;2022-12-18T01:37:12;100234.47;;;9.16;100.00
2675;BME280;1347;42.122;24.746;2022-12-18T01:39:41;100240.38;;;9.18;100.00
2675;BME280;1347;42.122;24.746;2022-12-18T01:42:10;100236.75;;;9.26;100.00
2675;BME280;1347;42.122;24.746;2022-12-18T01:44:56;100234.09;;;9.30;100.00
2675;BME280;1347;42.122;24.746;2022-12-18T01:47:26;100239.78;;;9.37;100.00
2675;BME280;1347;42.122;24.746;2022-12-18T01:49:55;100236.16;;;9.45;100.00
2675;BME280;1347;42.122;24.746;2022-12-18T01:52:24;100236.09;;;9.57;100.00
2675;BME280;1347;42.122;24.746;2022-12-18T01:54:54;100241.09;;;9.67;100.00
2675;BME280;1347;42.122;24.746;2022-12-18T01:57:23;100240.41;;;9.70;100.00
2675;BME280;1347;42.122;24.746;2022-12-18T01:59:53;100237.00;;;9.73;100.00
2675;BME280;1347;42.122;24.746;2022-12-18T02:02:21;100239.06;;;9.76;100.00
2675;BME280;1347;42.122;24.746;2022-12-18T02:04:48;100244.97;;;9.78;100.00
2675;BME280;1347;42.122;24.746;2022-12-18T02:07:20;100261.97;;;9.84;100.00
2675;BME280;1347;42.122;24.746;2022-12-18T02:09:58;100261.28;;;9.87;100.00
2675;BME280;1347;42.122;24.746;2022-12-18T02:12:32;100264.00;;;9.87;100.00
2675;BME280;1347;42.122;24.746;2022-12-18T02:15:06;100263.63;;;9.88;100.00
2675;BME280;1347;42.122;24.746;2022-12-18T02:17:38;100266.94;;;9.94;100.00
2675;BME280;1347;42.122;24.746;2022-12-18T02:20:12;100268.22;;;9.96;100.00
2675;BME280;1347;42.122;24.746;2022-12-18T02:22:49;100270.56;;;9.98;100.00
2675;BME280;1347;42.122;24.746;2022-12-18T02:25:37;100271.50;;;10.02;100.00
2675;BME280;1347;42.122;24.746;2022-12-18T02:28:11;100273.19;;;10.07;100.00
2675;BME280;1347;42.122;24.746;2022-12-18T02:30:41;100275.69;;;10.12;100.00
2675;BME280;1347;42.122;24.746;2022-12-18T02:33:09;100275.78;;;10.15;100.00
2675;BME280;1347;42.122;24.746;2022-12-18T02:35:38;100267.00;;;10.10;100.00
2675;BME280;1347;42.122;24.746;2022-12-18T02:38:07;100265.84;;;10.11;100.00
2675;BME280;1347;42.122;24.746;2022-12-18T02:40:34;100259.69;;;10.14;100.00
2675;BME280;1347;42.122;24.746;2022-12-18T02:43:08;100261.53;;;10.10;100.00
2675;BME280;1347;42.122;24.746;2022-12-18T02:45:35;100260.66;;;10.06;100.00
2675;BME280;1347;42.122;24.746;2022-12-18T02:48:02;100264.97;;;10.07;100.00
2675;BME280;1347;42.122;24.746;2022-12-18T02:50:35;100262.13;;;10.03;100.00
2675;BME280;1347;42.122;24.746;2022-12-18T02:53:10;100265.66;;;10.04;100.00
2675;BME280;1347;42.122;24.746;2022-12-18T02:55:53;100273.09;;;10.03;100.00
2675;BME280;1347;42.122;24.746;2022-12-18T02:58:27;100270.47;;;10.07;100.00
2675;BME280;1347;42.122;24.746;2022-12-18T03:01:01;100274.56;;;10.01;100.00
2675;BME280;1347;42.122;24.746;2022-12-18T03:03:35;100261.44;;;10.06;100.00
2675;BME280;1347;42.122;24.746;2022-12-18T03:06:10;100266.00;;;10.02;100.00
2675;BME280;1347;42.122;24.746;2022-12-18T03:08:42;100271.50;;;10.02;100.00
2675;BME280;1347;42.122;24.746;2022-12-18T03:11:12;100272.97;;;10.00;100.00
2675;BME280;1347;42.122;24.746;2022-12-18T03:13:45;100269.78;;;9.97;100.00
2675;BME280;1347;42.122;24.746;2022-12-18T03:16:17;100279.97;;;9.97;100.00
2675;BME280;1347;42.122;24.746;2022-12-18T03:18:49;100280.66;;;9.94;100.00
2675;BME280;1347;42.122;24.746;2022-12-18T03:21:20;100280.66;;;9.94;100.00
2675;BME280;1347;42.122;24.746;2022-12-18T03:23:49;100282.25;;;9.95;100.00
2675;BME280;1347;42.122;24.746;2022-12-18T03:26:19;100281.91;;;9.96;100.00
2675;BME280;1347;42.122;24.746;2022-12-18T03:28:53;100288.06;;;9.93;100.00
2675;BME280;1347;42.122;24.746;2022-12-18T03:31:23;100291.94;;;9.92;100.00
2675;BME280;1347;42.122;24.746;2022-12-18T03:33:57;100288.41;;;9.92;100.00
2675;BME280;1347;42.122;24.746;2022-12-18T03:36:25;100291.13;;;9.92;100.00
2675;BME280;1347;42.122;24.746;2022-12-18T03:38:53;100299.56;;;9.99;100.00
2675;BME280;1347;42.122;24.746;2022-12-18T03:41:27;100306.19;;;9.98;100.00
2675;BME280;1347;42.122;24.746;2022-12-18T03:44:03;100313.97;;;9.96;100.00
2675;BME280;1347;42.122;24.746;2022-12-18T03:46:43;100315.91;;;9.95;100.00
2675;BME280;1347;42.122;24.746;2022-12-18T03:49:21;100324.56;;;9.97;100.00
2675;BME280;1347;42.122;24.746;2022-12-18T03:51:52;100334.03;;;10.00;100.00
2675;BME280;1347;42.122;24.746;2022-12-18T03:54:22;100328.78;;;10.07;100.00
2675;BME280;1347;42.122;24.746;2022-12-18T03:56:55;100335.94;;;10.12;100.00
2675;BME280;1347;42.122;24.746;2022-12-18T03:59:29;100337.53;;;10.13;100.00
2675;BME280;1347;42.122;24.746;2022-12-18T04:02:00;100343.13;;;10.16;100.00
2675;BME280;1347;42.122;24.746;2022-12-18T04:04:28;100335.59;;;10.13;100.00
2675;BME280;1347;42.122;24.746;2022-12-18T04:06:57;100340.75;;;10.15;100.00
2675;BME280;1347;42.122;24.746;2022-12-18T04:09:25;100338.47;;;10.17;100.00
2675;BME280;1347;42.122;24.746;2022-12-18T04:11:52;100347.59;;;10.21;100.00
2675;BME280;1347;42.122;24.746;2022-12-18T04:14:19;100357.06;;;10.23;100.00
2675;BME280;1347;42.122;24.746;2022-12-18T04:16:48;100348.41;;;10.21;100.00
2675;BME280;1347;42.122;24.746;2022-12-18T04:19:15;100348.50;;;10.25;100.00
2675;BME280;1347;42.122;24.746;2022-12-18T04:21:44;100352.13;;;10.29;100.00
2675;BME280;1347;42.122;24.746;2022-12-18T04:24:11;100350.09;;;10.26;100.00
2675;BME280;1347;42.122;24.746;2022-12-18T04:26:38;100355.94;;;10.24;100.00
2675;BME280;1347;42.122;24.746;2022-12-18T04:29:05;100365.16;;;10.20;100.00
2675;BME280;1347;42.122;24.746;2022-12-18T04:31:32;100363.91;;;10.17;100.00
2675;BME280;1347;42.122;24.746;2022-12-18T04:34:00;100370.06;;;10.14;100.00
2675;BME280;1347;42.122;24.746;2022-12-18T04:36:27;100365.06;;;10.04;100.00
2675;BME280;1347;42.122;24.746;2022-12-18T04:38:54;100375.22;;;10.04;100.00
2675;BME280;1347;42.122;24.746;2022-12-18T04:41:21;100372.81;;;10.02;100.00
2675;BME280;1347;42.122;24.746;2022-12-18T04:43:48;100386.88;;;10.01;100.00
2675;BME280;1347;42.122;24.746;2022-12-18T04:46:15;100386.41;;;9.98;100.00
2675;BME280;1347;42.122;24.746;2022-12-18T04:48:41;100390.41;;;9.89;100.00
2675;BME280;1347;42.122;24.746;2022-12-18T04:51:10;100398.19;;;9.87;100.00
2675;BME280;1347;42.122;24.746;2022-12-18T04:53:37;100398.28;;;9.78;100.00
2675;BME280;1347;42.122;24.746;2022-12-18T04:56:05;100399.09;;;9.79;100.00
2675;BME280;1347;42.122;24.746;2022-12-18T04:58:33;100407.88;;;9.72;100.00
2675;BME280;1347;42.122;24.746;2022-12-18T05:00:59;100410.94;;;9.71;100.00
2675;BME280;1347;42.122;24.746;2022-12-18T05:03:27;100413.34;;;9.72;100.00
2675;BME280;1347;42.122;24.746;2022-12-18T05:05:54;100421.09;;;9.70;100.00
2675;BME280;1347;42.122;24.746;2022-12-18T05:08:22;100413.22;;;9.69;100.00
2675;BME280;1347;42.122;24.746;2022-12-18T05:10:49;100419.97;;;9.71;100.00
2675;BME280;1347;42.122;24.746;2022-12-18T05:13:16;100432.53;;;9.72;100.00
2675;BME280;1347;42.122;24.746;2022-12-18T05:15:51;100430.78;;;9.68;100.00
2675;BME280;1347;42.122;24.746;2022-12-18T05:18:18;100428.75;;;9.65;100.00
2675;BME280;1347;42.122;24.746;2022-12-18T05:20:45;100435.94;;;9.69;100.00
2675;BME280;1347;42.122;24.746;2022-12-18T05:23:12;100438.19;;;9.67;100.00
2675;BME280;1347;42.122;24.746;2022-12-18T05:25:40;100437.06;;;9.68;100.00
2675;BME280;1347;42.122;24.746;2022-12-18T05:28:07;100451.56;;;9.69;100.00
2675;BME280;1347;42.122;24.746;2022-12-18T05:30:33;100460.69;;;9.73;100.00
2675;BME280;1347;42.122;24.746;2022-12-18T05:33:00;100468.25;;;9.76;100.00
2675;BME280;1347;42.122;24.746;2022-12-18T05:35:27;100477.91;;;9.73;100.00
2675;BME280;1347;42.122;24.746;2022-12-18T05:37:54;100469.84;;;9.77;100.00
2675;BME280;1347;42.122;24.746;2022-12-18T05:40:21;100478.81;;;9.77;100.00
2675;BME280;1347;42.122;24.746;2022-12-18T05:42:49;100476.44;;;9.76;100.00
2675;BME280;1347;42.122;24.746;2022-12-18T05:45:16;100488.22;;;9.76;100.00
2675;BME280;1347;42.122;24.746;2022-12-18T05:47:43;100492.41;;;9.74;100.00
2675;BME280;1347;42.122;24.746;2022-12-18T05:50:10;100495.63;;;9.76;100.00
2675;BME280;1347;42.122;24.746;2022-12-18T05:52:37;100494.59;;;9.80;100.00
2675;BME280;1347;42.122;24.746;2022-12-18T05:55:04;100499.50;;;9.75;100.00
2675;BME280;1347;42.122;24.746;2022-12-18T05:57:31;100505.88;;;9.79;100.00
2675;BME280;1347;42.122;24.746;2022-12-18T05:59:59;100509.31;;;9.76;100.00
2675;BME280;1347;42.122;24.746;2022-12-18T06:02:26;100512.75;;;9.85;100.00
2675;BME280;1347;42.122;24.746;2022-12-18T06:04:53;100518.88;;;9.82;100.00
2675;BME280;1347;42.122;24.746;2022-12-18T06:07:20;100514.69;;;9.84;100.00
2675;BME280;1347;42.122;24.746;2022-12-18T06:09:47;100514.09;;;9.91;100.00
2675;BME280;1347;42.122;24.746;2022-12-18T06:12:14;100501.22;;;9.91;100.00
2675;BME280;1347;42.122;24.746;2022-12-18T06:14:41;100510.69;;;9.94;100.00
2675;BME280;1347;42.122;24.746;2022-12-18T06:17:09;100522.56;;;9.98;100.00
2675;BME280;1347;42.122;24.746;2022-12-18T06:19:36;100516.75;;;10.00;100.00
2675;BME280;1347;42.122;24.746;2022-12-18T06:22:03;100524.25;;;9.90;100.00
2675;BME280;1347;42.122;24.746;2022-12-18T06:24:30;100534.31;;;9.98;100.00
2675;BME280;1347;42.122;24.746;2022-12-18T06:26:58;100531.38;;;10.04;100.00
2675;BME280;1347;42.122;24.746;2022-12-18T06:29:25;100540.25;;;10.01;100.00
2675;BME280;1347;42.122;24.746;2022-12-18T06:31:52;100548.94;;;10.03;100.00
2675;BME280;1347;42.122;24.746;2022-12-18T06:34:20;100553.41;;;10.07;100.00
2675;BME280;1347;42.122;24.746;2022-12-18T06:36:47;100552.03;;;10.13;100.00
2675;BME280;1347;42.122;24.746;2022-12-18T06:39:14;100560.03;;;10.06;100.00
2675;BME280;1347;42.122;24.746;2022-12-18T06:41:41;100567.78;;;10.04;100.00
2675;BME280;1347;42.122;24.746;2022-12-18T06:44:08;100572.81;;;10.14;100.00
2675;BME280;1347;42.122;24.746;2022-12-18T06:46:35;100578.75;;;10.16;100.00
2675;BME280;1347;42.122;24.746;2022-12-18T06:49:03;100589.97;;;10.23;100.00
2675;BME280;1347;42.122;24.746;2022-12-18T06:51:31;100586.91;;;10.25;100.00
2675;BME280;1347;42.122;24.746;2022-12-18T06:53:58;100587.69;;;10.25;100.00
2675;BME280;1347;42.122;24.746;2022-12-18T06:56:26;100591.00;;;10.31;100.00
2675;BME280;1347;42.122;24.746;2022-12-18T06:58:53;100582.78;;;10.31;100.00
2675;BME280;1347;42.122;24.746;2022-12-18T07:01:20;100600.03;;;10.31;100.00
2675;BME280;1347;42.122;24.746;2022-12-18T07:03:51;100596.63;;;10.35;100.00
2675;BME280;1347;42.122;24.746;2022-12-18T07:06:20;100601.41;;;10.38;100.00
2675;BME280;1347;42.122;24.746;2022-12-18T07:08:49;100603.78;;;10.39;100.00
2675;BME280;1347;42.122;24.746;2022-12-18T07:11:17;100603.91;;;10.43;100.00
2675;BME280;1347;42.122;24.746;2022-12-18T07:13:44;100608.50;;;10.51;100.00
2675;BME280;1347;42.122;24.746;2022-12-18T07:16:13;100610.06;;;10.40;100.00
2675;BME280;1347;42.122;24.746;2022-12-18T07:18:40;100608.16;;;10.52;100.00
2675;BME280;1347;42.122;24.746;2022-12-18T07:21:09;100616.50;;;10.44;100.00
2675;BME280;1347;42.122;24.746;2022-12-18T07:23:36;100610.53;;;10.29;100.00
2675;BME280;1347;42.122;24.746;2022-12-18T07:26:06;100614.88;;;10.30;100.00
2675;BME280;1347;42.122;24.746;2022-12-18T07:28:35;100625.59;;;10.23;100.00
2675;BME280;1347;42.122;24.746;2022-12-18T07:31:06;100630.00;;;10.16;100.00
2675;BME280;1347;42.122;24.746;2022-12-18T07:33:39;100627.13;;;10.12;100.00
2675;BME280;1347;42.122;24.746;2022-12-18T07:36:12;100633.63;;;10.08;100.00
2675;BME280;1347;42.122;24.746;2022-12-18T07:38:55;100639.25;;;10.11;100.00
2675;BME280;1347;42.122;24.746;2022-12-18T07:41:23;100640.81;;;10.00;100.00
2675;BME280;1347;42.122;24.746;2022-12-18T07:43:53;100635.47;;;10.04;100.00
2675;BME280;1347;42.122;24.746;2022-12-18T07:46:25;100611.69;;;9.95;100.00
2675;BME280;1347;42.122;24.746;2022-12-18T07:49:05;100643.06;;;9.98;100.00
2675;BME280;1347;42.122;24.746;2022-12-18T07:51:51;100638.28;;;9.95;100.00
2675;BME280;1347;42.122;24.746;2022-12-18T07:54:37;100648.09;;;9.96;100.00
2675;BME280;1347;42.122;24.746;2022-12-18T07:57:26;100642.06;;;10.03;100.00
2675;BME280;1347;42.122;24.746;2022-12-18T08:00:01;100654.97;;;10.02;100.00
2675;BME280;1347;42.122;24.746;2022-12-18T08:02:33;100654.28;;;10.05;100.00
2675;BME280;1347;42.122;24.746;2022-12-18T08:05:01;100667.84;;;10.02;100.00
2675;BME280;1347;42.122;24.746;2022-12-18T08:07:35;100672.34;;;10.06;100.00
2675;BME280;1347;42.122;24.746;2022-12-18T08:10:07;100678.69;;;9.98;100.00
2675;BME280;1347;42.122;24.746;2022-12-18T08:12:39;100677.69;;;10.03;100.00
2675;BME280;1347;42.122;24.746;2022-12-18T08:15:09;100678.63;;;10.07;100.00
2675;BME280;1347;42.122;24.746;2022-12-18T08:17:47;100686.63;;;10.12;100.00
2675;BME280;1347;42.122;24.746;2022-12-18T08:20:38;100694.09;;;10.23;99.85
2675;BME280;1347;42.122;24.746;2022-12-18T08:23:23;100698.13;;;10.26;99.53
2675;BME280;1347;42.122;24.746;2022-12-18T08:26:00;100702.47;;;10.27;99.30
2675;BME280;1347;42.122;24.746;2022-12-18T08:28:34;100707.50;;;10.37;98.50
2675;BME280;1347;42.122;24.746;2022-12-18T08:31:06;100707.94;;;10.39;98.19
2675;BME280;1347;42.122;24.746;2022-12-18T08:33:43;100701.69;;;10.51;98.09
2675;BME280;1347;42.122;24.746;2022-12-18T08:36:13;100712.19;;;10.49;98.50
2675;BME280;1347;42.122;24.746;2022-12-18T08:38:43;100695.75;;;10.37;98.39
2675;BME280;1347;42.122;24.746;2022-12-18T08:41:13;100696.69;;;10.53;97.64
2675;BME280;1347;42.122;24.746;2022-12-18T08:43:51;100692.81;;;10.54;97.29
2675;BME280;1347;42.122;24.746;2022-12-18T08:46:56;100692.38;;;10.76;97.25
2675;BME280;1347;42.122;24.746;2022-12-18T08:49:24;100696.38;;;10.79;95.21
2675;BME280;1347;42.122;24.746;2022-12-18T08:52:00;100695.00;;;10.85;94.78
2675;BME280;1347;42.122;24.746;2022-12-18T08:54:28;100687.91;;;10.84;95.94
2675;BME280;1347;42.122;24.746;2022-12-18T08:56:56;100687.00;;;11.04;95.63
2675;BME280;1347;42.122;24.746;2022-12-18T08:59:24;100688.72;;;11.09;94.52
2675;BME280;1347;42.122;24.746;2022-12-18T09:01:53;100679.31;;;11.22;94.74
2675;BME280;1347;42.122;24.746;2022-12-18T09:04:21;100674.16;;;11.20;92.74
2675;BME280;1347;42.122;24.746;2022-12-18T09:06:49;100672.13;;;11.29;94.37
2675;BME280;1347;42.122;24.746;2022-12-18T09:09:16;100684.66;;;11.30;92.88
2675;BME280;1347;42.122;24.746;2022-12-18T09:11:43;100684.56;;;11.39;94.24
2675;BME280;1347;42.122;24.746;2022-12-18T09:14:10;100683.84;;;11.42;93.13
2675;BME280;1347;42.122;24.746;2022-12-18T09:16:38;100685.47;;;11.43;92.95
2675;BME280;1347;42.122;24.746;2022-12-18T09:19:05;100681.09;;;11.42;94.40
2675;BME280;1347;42.122;24.746;2022-12-18T09:21:34;100695.06;;;11.49;94.42
2675;BME280;1347;42.122;24.746;2022-12-18T09:24:01;100691.09;;;11.34;91.98
2675;BME280;1347;42.122;24.746;2022-12-18T09:26:28;100685.13;;;11.32;90.95
2675;BME280;1347;42.122;24.746;2022-12-18T09:28:55;100689.84;;;11.20;91.34
2675;BME280;1347;42.122;24.746;2022-12-18T09:31:24;100683.19;;;11.21;91.65
2675;BME280;1347;42.122;24.746;2022-12-18T09:33:54;100689.50;;;11.21;90.50
2675;BME280;1347;42.122;24.746;2022-12-18T09:36:21;100684.47;;;11.23;90.60
2675;BME280;1347;42.122;24.746;2022-12-18T09:38:48;100690.41;;;11.25;91.14
2675;BME280;1347;42.122;24.746;2022-12-18T09:41:28;100685.84;;;11.17;90.63
2675;BME280;1347;42.122;24.746;2022-12-18T09:44:01;100694.19;;;11.21;90.94
2675;BME280;1347;42.122;24.746;2022-12-18T09:46:35;100687.66;;;11.25;91.70
2675;BME280;1347;42.122;24.746;2022-12-18T09:49:06;100686.06;;;11.24;91.50
2675;BME280;1347;42.122;24.746;2022-12-18T09:51:40;100684.00;;;11.21;90.97
2675;BME280;1347;42.122;24.746;2022-12-18T09:54:14;100693.28;;;11.17;91.39
2675;BME280;1347;42.122;24.746;2022-12-18T09:56:43;100693.38;;;11.20;90.89
2675;BME280;1347;42.122;24.746;2022-12-18T09:59:20;100684.13;;;11.25;91.44
2675;BME280;1347;42.122;24.746;2022-12-18T10:01:47;100685.50;;;11.19;91.03
2675;BME280;1347;42.122;24.746;2022-12-18T10:04:16;100684.81;;;11.22;91.21
2675;BME280;1347;42.122;24.746;2022-12-18T10:06:46;100685.38;;;11.27;90.26
2675;BME280;1347;42.122;24.746;2022-12-18T10:09:23;100685.25;;;11.24;89.46
2675;BME280;1347;42.122;24.746;2022-12-18T10:11:58;100704.94;;;11.14;89.02
2675;BME280;1347;42.122;24.746;2022-12-18T10:14:35;100689.88;;;11.07;88.93
2675;BME280;1347;42.122;24.746;2022-12-18T10:17:10;100692.28;;;11.09;89.19
2675;BME280;1347;42.122;24.746;2022-12-18T10:19:46;100696.03;;;11.04;87.96
2675;BME280;1347;42.122;24.746;2022-12-18T10:22:25;100678.88;;;11.07;89.34
2675;BME280;1347;42.122;24.746;2022-12-18T10:25:01;100690.66;;;11.08;89.83
2675;BME280;1347;42.122;24.746;2022-12-18T10:27:30;100693.84;;;11.10;89.86
2675;BME280;1347;42.122;24.746;2022-12-18T10:29:58;100691.22;;;11.14;90.34
2675;BME280;1347;42.122;24.746;2022-12-18T10:32:26;100697.72;;;11.21;90.38
2675;BME280;1347;42.122;24.746;2022-12-18T10:34:56;100687.88;;;11.20;89.64
2675;BME280;1347;42.122;24.746;2022-12-18T10:37:25;100694.44;;;11.16;90.04
2675;BME280;1347;42.122;24.746;2022-12-18T10:40:08;100692.47;;;11.16;89.51
2675;BME280;1347;42.122;24.746;2022-12-18T10:42:35;100698.53;;;11.22;90.88
2675;BME280;1347;42.122;24.746;2022-12-18T10:45:08;100703.91;;;11.18;89.45
2675;BME280;1347;42.122;24.746;2022-12-18T10:47:36;100701.72;;;11.24;90.35
2675;BME280;1347;42.122;24.746;2022-12-18T10:50:10;100712.25;;;11.10;90.32
2675;BME280;1347;42.122;24.746;2022-12-18T10:52:53;100719.69;;;11.21;90.48
2675;BME280;1347;42.122;24.746;2022-12-18T10:55:20;100717.75;;;11.22;89.46
2675;BME280;1347;42.122;24.746;2022-12-18T10:57:50;100722.09;;;11.11;89.94
2675;BME280;1347;42.122;24.746;2022-12-18T11:00:24;100722.66;;;11.16;90.15
2675;BME280;1347;42.122;24.746;2022-12-18T11:02:53;100723.47;;;11.04;90.95
2675;BME280;1347;42.122;24.746;2022-12-18T11:05:30;100720.16;;;10.99;90.77
2675;BME280;1347;42.122;24.746;2022-12-18T11:07:57;100731.16;;;10.99;91.20
2675;BME280;1347;42.122;24.746;2022-12-18T11:10:28;100721.97;;;10.95;92.36
2675;BME280;1347;42.122;24.746;2022-12-18T11:13:16;100741.63;;;10.85;92.67
2675;BME280;1347;42.122;24.746;2022-12-18T11:15:53;100738.31;;;11.03;93.92
2675;BME280;1347;42.122;24.746;2022-12-18T11:18:33;100743.13;;;10.94;92.52
2675;BME280;1347;42.122;24.746;2022-12-18T11:21:11;100751.56;;;10.89;93.53
2675;BME280;1347;42.122;24.746;2022-12-18T11:23:47;100743.00;;;10.79;93.42
2675;BME280;1347;42.122;24.746;2022-12-18T11:26:16;100739.53;;;10.69;93.19
2675;BME280;1347;42.122;24.746;2022-12-18T11:28:44;100741.94;;;10.71;93.27
2675;BME280;1347;42.122;24.746;2022-12-18T11:31:20;100741.28;;;10.74;93.50
2675;BME280;1347;42.122;24.746;2022-12-18T11:33:53;100734.97;;;10.61;92.88
2675;BME280;1347;42.122;24.746;2022-12-18T11:36:25;100742.28;;;10.69;93.49
2675;BME280;1347;42.122;24.746;2022-12-18T11:38:54;100749.25;;;10.55;93.15
2675;BME280;1347;42.122;24.746;2022-12-18T11:41:26;100742.66;;;10.68;94.03
2675;BME280;1347;42.122;24.746;2022-12-18T11:44:11;100737.03;;;10.64;93.56
2675;BME280;1347;42.122;24.746;2022-12-18T11:46:45;100745.59;;;10.63;92.95
2675;BME280;1347;42.122;24.746;2022-12-18T11:49:18;100745.81;;;10.58;92.83
2675;BME280;1347;42.122;24.746;2022-12-18T11:51:53;100740.34;;;10.58;92.74
2675;BME280;1347;42.122;24.746;2022-12-18T11:54:22;100739.19;;;10.59;92.35
2675;BME280;1347;42.122;24.746;2022-12-18T11:56:53;100736.56;;;10.62;91.37
2675;BME280;1347;42.122;24.746;2022-12-18T12:38:04;100767.16;;;10.52;90.13
2675;BME280;1347;42.122;24.746;2022-12-18T12:40:35;100775.38;;;10.52;89.19
2675;BME280;1347;42.122;24.746;2022-12-18T12:43:09;100776.31;;;10.56;88.99
2675;BME280;1347;42.122;24.746;2022-12-18T12:45:44;100775.28;;;10.61;89.13
2675;BME280;1347;42.122;24.746;2022-12-18T12:48:17;100776.44;;;10.60;88.72
2675;BME280;1347;42.122;24.746;2022-12-18T12:50:46;100780.25;;;10.67;87.59
2675;BME280;1347;42.122;24.746;2022-12-18T12:53:23;100791.06;;;10.64;87.40
2675;BME280;1347;42.122;24.746;2022-12-18T12:55:53;100784.69;;;10.72;88.00
2675;BME280;1347;42.122;24.746;2022-12-18T12:58:29;100798.06;;;10.74;87.18
2675;BME280;1347;42.122;24.746;2022-12-18T13:01:05;100804.03;;;10.76;86.41
2675;BME280;1347;42.122;24.746;2022-12-18T13:03:43;100805.25;;;10.66;85.89
2675;BME280;1347;42.122;24.746;2022-12-18T13:06:23;100816.00;;;10.71;86.99
2675;BME280;1347;42.122;24.746;2022-12-18T13:08:55;100812.53;;;10.62;85.45
2675;BME280;1347;42.122;24.746;2022-12-18T13:11:37;100814.06;;;10.72;86.88
2675;BME280;1347;42.122;24.746;2022-12-18T13:14:29;100823.09;;;10.72;85.86
2675;BME280;1347;42.122;24.746;2022-12-18T13:17:16;100826.28;;;10.74;85.13
2675;BME280;1347;42.122;24.746;2022-12-18T13:19:44;100828.47;;;10.81;85.36
2675;BME280;1347;42.122;24.746;2022-12-18T13:22:21;100828.03;;;10.79;85.62
2675;BME280;1347;42.122;24.746;2022-12-18T13:24:50;100838.44;;;10.85;85.81
2675;BME280;1347;42.122;24.746;2022-12-18T13:30:49;100842.00;;;10.86;86.47
2675;BME280;1347;42.122;24.746;2022-12-18T13:33:40;100842.66;;;10.83;85.10
2675;BME280;1347;42.122;24.746;2022-12-18T13:36:27;100844.34;;;10.75;85.39
2675;BME280;1347;42.122;24.746;2022-12-18T13:39:22;100855.19;;;10.72;86.63
2675;BME280;1347;42.122;24.746;2022-12-18T13:41:52;100860.34;;;10.73;87.58
2675;BME280;1347;42.122;24.746;2022-12-18T13:44:31;100856.41;;;10.62;89.84
2675;BME280;1347;42.122;24.746;2022-12-18T13:47:00;100867.38;;;10.62;90.25
2675;BME280;1347;42.122;24.746;2022-12-18T13:49:32;100854.22;;;10.55;92.27
2675;BME280;1347;42.122;24.746;2022-12-18T13:52:15;100865.66;;;10.57;92.65
2675;BME280;1347;42.122;24.746;2022-12-18T13:54:46;100865.38;;;10.50;94.40
2675;BME280;1347;42.122;24.746;2022-12-18T13:57:29;100862.38;;;10.43;96.35
2675;BME280;1347;42.122;24.746;2022-12-18T13:59:56;100871.97;;;10.37;97.14